sensor_id;sensor_type;location;lat;lon;timestamp;pressure;altitude;pressure_sealevel;temperature;humidity
16821;BME280;8527;49.740;6.604;2023-03-16T00:03:30;100132.88;;;1.15;93.46
16821;BME280;8527;49.740;6.604;2023-03-16T00:08:28;100121.53;;;1.02;94.03
16821;BME280;8527;49.740;6.604;2023-03-16T00:13:28;100134.59;;;1.02;93.79
16821;BME280;8527;49.740;6.604;2023-03-16T00:18:29;100129.81;;;0.94;93.75
16821;BME280;8527;49.740;6.604;2023-03-16T00:23:33;100126.31;;;0.95;93.67
16821;BME280;8527;49.740;6.604;2023-03-16T00:28:33;100109.88;;;0.93;93.84
16821;BME280;8527;49.740;6.604;2023-03-16T00:33:34;100105.88;;;0.87;94.41
16821;BME280;8527;49.740;6.604;2023-03-16T00:38:35;100118.59;;;0.79;94.81
16821;BME280;8527;49.740;6.604;2023-03-16T00:43:35;100107.69;;;0.72;95.21
16821;BME280;8527;49.740;6.604;2023-03-16T00:48:39;100109.25;;;0.75;93.47
16821;BME280;8527;49.740;6.604;2023-03-16T00:53:39;100098.63;;;0.78;94.54
16821;BME280;8527;49.740;6.604;2023-03-16T00:58:39;100097.31;;;0.70;94.75
16821;BME280;8527;49.740;6.604;2023-03-16T01:03:40;100091.72;;;0.62;96.01
16821;BME280;8527;49.740;6.604;2023-03-16T01:08:39;100084.00;;;0.61;98.43
16821;BME280;8527;49.740;6.604;2023-03-16T01:13:38;100101.63;;;0.57;97.74
16821;BME280;8527;49.740;6.604;2023-03-16T01:18:40;100098.19;;;0.56;97.43
16821;BME280;8527;49.740;6.604;2023-03-16T01:23:39;100083.00;;;0.49;98.14
16821;BME280;8527;49.740;6.604;2023-03-16T01:28:38;100076.22;;;0.46;99.21
16821;BME280;8527;49.740;6.604;2023-03-16T01:33:41;100067.91;;;0.54;99.54
16821;BME280;8527;49.740;6.604;2023-03-16T01:38:40;100073.78;;;0.58;98.03
16821;BME280;8527;49.740;6.604;2023-03-16T01:43:40;100064.16;;;0.58;98.14
16821;BME280;8527;49.740;6.604;2023-03-16T01:48:44;100056.28;;;0.45;97.46
16821;BME280;8527;49.740;6.604;2023-03-16T01:53:45;100055.06;;;0.51;97.62
16821;BME280;8527;49.740;6.604;2023-03-16T01:58:45;100050.44;;;0.54;97.86
16821;BME280;8527;49.740;6.604;2023-03-16T02:03:48;100036.56;;;0.54;97.83
16821;BME280;8527;49.740;6.604;2023-03-16T02:08:50;100038.13;;;0.56;98.73
16821;BME280;8527;49.740;6.604;2023-03-16T02:13:51;100037.31;;;0.56;98.78
16821;BME280;8527;49.740;6.604;2023-03-16T02:18:52;100023.84;;;0.62;98.29
16821;BME280;8527;49.740;6.604;2023-03-16T02:23:50;100009.78;;;0.65;98.45
16821;BME280;8527;49.740;6.604;2023-03-16T02:28:56;100004.84;;;0.60;98.95
16821;BME280;8527;49.740;6.604;2023-03-16T02:34:02;99994.81;;;0.54;99.44
16821;BME280;8527;49.740;6.604;2023-03-16T02:39:01;99995.25;;;0.61;99.42
16821;BME280;8527;49.740;6.604;2023-03-16T02:44:04;99993.38;;;0.63;99.29
16821;BME280;8527;49.740;6.604;2023-03-16T02:49:16;99978.25;;;0.68;98.93
16821;BME280;8527;49.740;6.604;2023-03-16T02:54:16;99979.75;;;0.72;99.26
16821;BME280;8527;49.740;6.604;2023-03-16T02:59:15;99972.72;;;0.73;100.00
16821;BME280;8527;49.740;6.604;2023-03-16T03:04:16;99974.50;;;0.72;100.00
16821;BME280;8527;49.740;6.604;2023-03-16T03:09:18;99977.00;;;0.74;100.00
16821;BME280;8527;49.740;6.604;2023-03-16T03:14:16;99979.44;;;0.77;100.00
16821;BME280;8527;49.740;6.604;2023-03-16T03:19:17;99978.50;;;0.78;100.00
16821;BME280;8527;49.740;6.604;2023-03-16T03:24:17;99979.44;;;0.77;100.00
16821;BME280;8527;49.740;6.604;2023-03-16T03:29:16;99967.22;;;0.77;100.00
16821;BME280;8527;49.740;6.604;2023-03-16T03:34:17;99965.88;;;0.84;100.00
16821;BME280;8527;49.740;6.604;2023-03-16T03:39:18;99963.88;;;0.88;100.00
16821;BME280;8527;49.740;6.604;2023-03-16T03:44:16;99968.50;;;0.84;100.00
16821;BME280;8527;49.740;6.604;2023-03-16T03:49:20;99960.66;;;0.84;100.00
16821;BME280;8527;49.740;6.604;2023-03-16T03:54:18;99954.50;;;0.86;100.00
16821;BME280;8527;49.740;6.604;2023-03-16T03:59:17;99953.66;;;0.85;100.00
16821;BME280;8527;49.740;6.604;2023-03-16T04:04:16;99953.25;;;0.91;100.00
16821;BME280;8527;49.740;6.604;2023-03-16T04:09:17;99949.28;;;0.86;100.00
16821;BME280;8527;49.740;6.604;2023-03-16T04:14:16;99950.50;;;0.80;100.00
16821;BME280;8527;49.740;6.604;2023-03-16T04:19:17;99944.34;;;0.81;100.00
16821;BME280;8527;49.740;6.604;2023-03-16T04:24:18;99943.41;;;0.82;100.00
16821;BME280;8527;49.740;6.604;2023-03-16T04:29:16;99935.66;;;0.80;100.00
16821;BME280;8527;49.740;6.604;2023-03-16T04:34:15;99929.56;;;0.67;100.00
16821;BME280;8527;49.740;6.604;2023-03-16T04:39:13;99929.28;;;0.72;100.00
16821;BME280;8527;49.740;6.604;2023-03-16T04:44:14;99924.34;;;0.67;100.00
16821;BME280;8527;49.740;6.604;2023-03-16T04:49:12;99929.88;;;0.62;99.85
16821;BME280;8527;49.740;6.604;2023-03-16T04:54:11;99924.97;;;0.58;100.00
16821;BME280;8527;49.740;6.604;2023-03-16T04:59:09;99920.06;;;0.53;100.00
16821;BME280;8527;49.740;6.604;2023-03-16T05:04:10;99920.06;;;0.53;100.00
16821;BME280;8527;49.740;6.604;2023-03-16T05:09:10;99916.94;;;0.61;100.00
16821;BME280;8527;49.740;6.604;2023-03-16T05:14:08;99912.53;;;0.61;100.00
16821;BME280;8527;49.740;6.604;2023-03-16T05:19:07;99912.03;;;0.69;100.00
16821;BME280;8527;49.740;6.604;2023-03-16T05:24:08;99916.94;;;0.74;100.00
16821;BME280;8527;49.740;6.604;2023-03-16T05:29:06;99914.03;;;0.65;100.00
16821;BME280;8527;49.740;6.604;2023-03-16T05:34:04;99909.13;;;0.74;100.00
16821;BME280;8527;49.740;6.604;2023-03-16T05:39:12;99909.53;;;0.80;100.00
16821;BME280;8527;49.740;6.604;2023-03-16T05:44:17;99902.56;;;0.94;100.00
16821;BME280;8527;49.740;6.604;2023-03-16T05:49:16;99906.13;;;0.93;100.00
16821;BME280;8527;49.740;6.604;2023-03-16T05:54:14;99903.13;;;0.99;100.00
16821;BME280;8527;49.740;6.604;2023-03-16T05:59:15;99911.38;;;1.06;100.00
16821;BME280;8527;49.740;6.604;2023-03-16T06:04:15;99904.56;;;1.03;100.00
16821;BME280;8527;49.740;6.604;2023-03-16T06:09:13;99898.41;;;1.04;100.00
16821;BME280;8527;49.740;6.604;2023-03-16T06:14:11;99886.06;;;1.06;100.00
16821;BME280;8527;49.740;6.604;2023-03-16T06:19:13;99901.03;;;1.17;100.00
16821;BME280;8527;49.740;6.604;2023-03-16T06:24:12;99885.16;;;1.33;100.00
16821;BME280;8527;49.740;6.604;2023-03-16T06:29:10;99888.59;;;1.47;100.00
16821;BME280;8527;49.740;6.604;2023-03-16T06:34:17;99890.13;;;1.62;100.00
16821;BME280;8527;49.740;6.604;2023-03-16T06:39:19;99898.25;;;1.83;100.00
16821;BME280;8527;49.740;6.604;2023-03-16T06:44:20;99897.47;;;1.94;100.00
16821;BME280;8527;49.740;6.604;2023-03-16T06:49:21;99907.06;;;2.07;100.00
16821;BME280;8527;49.740;6.604;2023-03-16T06:54:20;99916.47;;;2.22;100.00
16821;BME280;8527;49.740;6.604;2023-03-16T06:59:18;99924.09;;;2.25;100.00
16821;BME280;8527;49.740;6.604;2023-03-16T07:04:16;99914.50;;;2.37;99.79
16821;BME280;8527;49.740;6.604;2023-03-16T07:09:17;99910.50;;;2.45;98.89
16821;BME280;8527;49.740;6.604;2023-03-16T07:14:16;99911.69;;;2.52;98.75
16821;BME280;8527;49.740;6.604;2023-03-16T07:19:17;99914.25;;;2.65;97.85
16821;BME280;8527;49.740;6.604;2023-03-16T07:24:19;99921.94;;;2.79;97.87
16821;BME280;8527;49.740;6.604;2023-03-16T07:29:18;99933.31;;;2.91;97.23
16821;BME280;8527;49.740;6.604;2023-03-16T07:34:16;99920.59;;;3.21;98.29
16821;BME280;8527;49.740;6.604;2023-03-16T07:39:15;99910.25;;;3.65;96.01
16821;BME280;8527;49.740;6.604;2023-03-16T07:44:16;99920.00;;;4.08;93.21
16821;BME280;8527;49.740;6.604;2023-03-16T07:49:14;99911.34;;;4.29;93.51
16821;BME280;8527;49.740;6.604;2023-03-16T07:54:13;99917.91;;;4.35;92.24
16821;BME280;8527;49.740;6.604;2023-03-16T07:59:12;99911.84;;;4.34;91.27
16821;BME280;8527;49.740;6.604;2023-03-16T08:04:13;99905.44;;;4.48;92.19
16821;BME280;8527;49.740;6.604;2023-03-16T08:09:11;99895.31;;;4.76;88.15
16821;BME280;8527;49.740;6.604;2023-03-16T08:14:09;99893.59;;;5.70;85.61
16821;BME280;8527;49.740;6.604;2023-03-16T08:19:08;99884.06;;;5.89;81.45
16821;BME280;8527;49.740;6.604;2023-03-16T08:24:09;99882.25;;;5.39;82.21
16821;BME280;8527;49.740;6.604;2023-03-16T08:29:07;99875.06;;;5.41;81.03
16821;BME280;8527;49.740;6.604;2023-03-16T08:34:05;99872.44;;;5.91;80.64
16821;BME280;8527;49.740;6.604;2023-03-16T08:39:04;99878.97;;;5.97;80.00
16821;BME280;8527;49.740;6.604;2023-03-16T08:44:05;99880.28;;;6.23;79.21
16821;BME280;8527;49.740;6.604;2023-03-16T08:49:05;99881.00;;;6.64;79.33
16821;BME280;8527;49.740;6.604;2023-03-16T08:54:03;99881.25;;;6.61;77.40
16821;BME280;8527;49.740;6.604;2023-03-16T08:59:04;99869.41;;;7.52;79.39
16821;BME280;8527;49.740;6.604;2023-03-16T09:04:03;99864.41;;;8.05;71.51
16821;BME280;8527;49.740;6.604;2023-03-16T09:09:01;99870.84;;;8.75;71.78
16821;BME280;8527;49.740;6.604;2023-03-16T09:14:00;99863.25;;;8.80;70.48
16821;BME280;8527;49.740;6.604;2023-03-16T09:19:01;99860.38;;;9.18;71.98
16821;BME280;8527;49.740;6.604;2023-03-16T09:24:00;99854.22;;;9.44;69.71
16821;BME280;8527;49.740;6.604;2023-03-16T09:28:58;99854.88;;;9.89;68.23
16821;BME280;8527;49.740;6.604;2023-03-16T09:33:57;99853.19;;;9.80;67.81
16821;BME280;8527;49.740;6.604;2023-03-16T09:38:58;99852.63;;;10.27;63.42
16821;BME280;8527;49.740;6.604;2023-03-16T09:44:04;99855.31;;;10.77;64.14
16821;BME280;8527;49.740;6.604;2023-03-16T09:49:08;99843.06;;;10.76;62.26
16821;BME280;8527;49.740;6.604;2023-03-16T09:54:18;99832.84;;;11.13;61.10
16821;BME280;8527;49.740;6.604;2023-03-16T10:04:48;99826.13;;;10.61;64.33
16821;BME280;8527;49.740;6.604;2023-03-16T10:09:59;99823.91;;;11.54;60.02
16821;BME280;8527;49.740;6.604;2023-03-16T10:15:04;99823.19;;;11.68;60.09
16821;BME280;8527;49.740;6.604;2023-03-16T10:20:10;99821.34;;;11.29;57.59
16821;BME280;8527;49.740;6.604;2023-03-16T10:25:15;99810.09;;;12.22;58.13
16821;BME280;8527;49.740;6.604;2023-03-16T10:30:22;99818.88;;;12.22;57.98
16821;BME280;8527;49.740;6.604;2023-03-16T10:35:30;99810.91;;;12.22;53.44
16821;BME280;8527;49.740;6.604;2023-03-16T10:40:38;99814.00;;;12.73;55.36
16821;BME280;8527;49.740;6.604;2023-03-16T10:45:37;99806.94;;;12.95;56.21
16821;BME280;8527;49.740;6.604;2023-03-16T10:50:35;99802.66;;;12.56;52.25
16821;BME280;8527;49.740;6.604;2023-03-16T10:55:42;99790.75;;;12.66;52.09
16821;BME280;8527;49.740;6.604;2023-03-16T11:00:41;99785.44;;;13.12;53.01
16821;BME280;8527;49.740;6.604;2023-03-16T11:05:40;99778.03;;;12.92;54.08
16821;BME280;8527;49.740;6.604;2023-03-16T11:10:43;99769.81;;;13.23;54.06
16821;BME280;8527;49.740;6.604;2023-03-16T11:15:46;99773.81;;;13.64;50.23
16821;BME280;8527;49.740;6.604;2023-03-16T11:20:46;99769.22;;;13.73;47.23
16821;BME280;8527;49.740;6.604;2023-03-16T11:25:49;99768.72;;;13.03;45.48
16821;BME280;8527;49.740;6.604;2023-03-16T11:30:55;99764.78;;;12.84;46.07
16821;BME280;8527;49.740;6.604;2023-03-16T11:36:19;99747.44;;;13.03;45.35
16821;BME280;8527;49.740;6.604;2023-03-16T11:41:36;99738.97;;;12.99;46.09
16821;BME280;8527;49.740;6.604;2023-03-16T11:46:41;99722.16;;;13.14;45.24
16821;BME280;8527;49.740;6.604;2023-03-16T11:51:48;99725.91;;;13.93;45.45
16821;BME280;8527;49.740;6.604;2023-03-16T11:56:56;99716.63;;;13.89;44.19
16821;BME280;8527;49.740;6.604;2023-03-16T12:02:08;99717.78;;;14.01;45.13
16821;BME280;8527;49.740;6.604;2023-03-16T12:07:28;99719.44;;;14.31;42.93
16821;BME280;8527;49.740;6.604;2023-03-16T12:12:46;99696.19;;;14.25;43.32
16821;BME280;8527;49.740;6.604;2023-03-16T12:17:48;99689.84;;;13.97;42.92
16821;BME280;8527;49.740;6.604;2023-03-16T12:22:51;99685.78;;;14.30;44.11
16821;BME280;8527;49.740;6.604;2023-03-16T12:27:55;99677.41;;;14.11;43.03
16821;BME280;8527;49.740;6.604;2023-03-16T12:32:59;99665.00;;;14.54;42.94
16821;BME280;8527;49.740;6.604;2023-03-16T12:38:21;99644.16;;;14.35;42.16
16821;BME280;8527;49.740;6.604;2023-03-16T12:43:36;99638.16;;;13.98;42.89
16821;BME280;8527;49.740;6.604;2023-03-16T12:48:41;99628.53;;;14.39;43.28
16821;BME280;8527;49.740;6.604;2023-03-16T12:53:44;99630.41;;;13.82;41.81
16821;BME280;8527;49.740;6.604;2023-03-16T12:58:47;99619.38;;;13.85;42.27
16821;BME280;8527;49.740;6.604;2023-03-16T13:03:47;99615.53;;;14.23;41.27
16821;BME280;8527;49.740;6.604;2023-03-16T13:08:50;99610.41;;;14.28;41.49
16821;BME280;8527;49.740;6.604;2023-03-16T13:14:08;99601.25;;;14.44;41.27
16821;BME280;8527;49.740;6.604;2023-03-16T13:19:25;99590.41;;;14.45;42.47
16821;BME280;8527;49.740;6.604;2023-03-16T13:24:26;99591.06;;;14.19;41.82
16821;BME280;8527;49.740;6.604;2023-03-16T13:29:29;99576.19;;;14.38;43.52
16821;BME280;8527;49.740;6.604;2023-03-16T13:34:30;99575.84;;;14.48;42.90
16821;BME280;8527;49.740;6.604;2023-03-16T13:39:30;99580.56;;;14.53;43.22
16821;BME280;8527;49.740;6.604;2023-03-16T13:44:31;99572.16;;;14.49;43.05
16821;BME280;8527;49.740;6.604;2023-03-16T13:49:30;99570.78;;;14.25;41.83
16821;BME280;8527;49.740;6.604;2023-03-16T13:54:29;99570.00;;;14.31;42.58
16821;BME280;8527;49.740;6.604;2023-03-16T13:59:28;99562.06;;;14.44;44.11
16821;BME280;8527;49.740;6.604;2023-03-16T14:04:30;99549.78;;;14.57;42.28
16821;BME280;8527;49.740;6.604;2023-03-16T14:09:31;99549.41;;;14.67;43.16
16821;BME280;8527;49.740;6.604;2023-03-16T14:14:37;99545.75;;;14.74;43.51
16821;BME280;8527;49.740;6.604;2023-03-16T14:19:41;99527.84;;;14.68;43.55
16821;BME280;8527;49.740;6.604;2023-03-16T14:24:40;99520.03;;;14.67;43.54
16821;BME280;8527;49.740;6.604;2023-03-16T14:29:41;99511.75;;;14.41;42.83
16821;BME280;8527;49.740;6.604;2023-03-16T14:34:47;99508.66;;;14.38;43.56
16821;BME280;8527;49.740;6.604;2023-03-16T14:39:56;99501.66;;;14.30;43.06
16821;BME280;8527;49.740;6.604;2023-03-16T14:44:57;99501.66;;;14.30;43.20
16821;BME280;8527;49.740;6.604;2023-03-16T14:50:03;99494.44;;;14.24;43.10
16821;BME280;8527;49.740;6.604;2023-03-16T14:55:10;99492.97;;;14.21;43.46
16821;BME280;8527;49.740;6.604;2023-03-16T15:00:11;99495.41;;;14.16;43.72
16821;BME280;8527;49.740;6.604;2023-03-16T15:05:19;99487.22;;;14.17;43.44
16821;BME280;8527;49.740;6.604;2023-03-16T15:10:21;99474.47;;;14.13;43.13
16821;BME280;8527;49.740;6.604;2023-03-16T15:15:22;99474.06;;;14.09;43.23
16821;BME280;8527;49.740;6.604;2023-03-16T17:28:51;99435.72;;;11.94;54.06
16821;BME280;8527;49.740;6.604;2023-03-16T17:33:54;99430.81;;;11.61;55.90
16821;BME280;8527;49.740;6.604;2023-03-16T17:38:53;99433.81;;;11.43;57.10
16821;BME280;8527;49.740;6.604;2023-03-16T17:43:58;99424.00;;;11.28;57.57
16821;BME280;8527;49.740;6.604;2023-03-16T17:49:16;99430.56;;;11.02;58.43
16821;BME280;8527;49.740;6.604;2023-03-16T17:54:22;99423.25;;;10.81;58.76
16821;BME280;8527;49.740;6.604;2023-03-16T17:59:24;99419.78;;;10.80;58.62
16821;BME280;8527;49.740;6.604;2023-03-16T18:04:32;99428.69;;;10.64;59.64
16821;BME280;8527;49.740;6.604;2023-03-16T18:09:40;99443.22;;;10.45;60.68
16821;BME280;8527;49.740;6.604;2023-03-16T18:14:51;99444.78;;;10.31;60.98
16821;BME280;8527;49.740;6.604;2023-03-16T18:19:52;99435.91;;;10.16;60.93
16821;BME280;8527;49.740;6.604;2023-03-16T18:24:52;99440.50;;;9.90;61.50
16821;BME280;8527;49.740;6.604;2023-03-16T18:29:57;99438.19;;;9.87;62.48
16821;BME280;8527;49.740;6.604;2023-03-16T18:34:58;99441.44;;;9.57;61.57
16821;BME280;8527;49.740;6.604;2023-03-16T18:39:58;99430.22;;;9.39;62.51
16821;BME280;8527;49.740;6.604;2023-03-16T18:45:02;99428.38;;;9.48;63.07
16821;BME280;8527;49.740;6.604;2023-03-16T18:50:01;99441.13;;;9.44;62.44
16821;BME280;8527;49.740;6.604;2023-03-16T18:54:59;99444.78;;;9.26;62.54
16821;BME280;8527;49.740;6.604;2023-03-16T19:00:05;99433.09;;;9.12;63.29
16821;BME280;8527;49.740;6.604;2023-03-16T19:05:06;99437.06;;;8.75;64.59
16821;BME280;8527;49.740;6.604;2023-03-16T19:10:18;99429.41;;;8.47;65.77
16821;BME280;8527;49.740;6.604;2023-03-16T19:15:23;99429.22;;;8.49;66.01
16821;BME280;8527;49.740;6.604;2023-03-16T19:20:25;99430.41;;;8.54;65.65
16821;BME280;8527;49.740;6.604;2023-03-16T19:25:27;99431.00;;;8.23;66.35
16821;BME280;8527;49.740;6.604;2023-03-16T19:30:33;99422.34;;;7.96;67.09
16821;BME280;8527;49.740;6.604;2023-03-16T19:35:32;99428.28;;;8.07;66.82
16821;BME280;8527;49.740;6.604;2023-03-16T19:40:30;99424.00;;;8.06;65.71
16821;BME280;8527;49.740;6.604;2023-03-16T19:45:32;99416.03;;;7.89;66.87
16821;BME280;8527;49.740;6.604;2023-03-16T19:50:31;99420.97;;;7.92;67.33
16821;BME280;8527;49.740;6.604;2023-03-16T19:55:31;99409.88;;;7.80;67.70
16821;BME280;8527;49.740;6.604;2023-03-16T20:00:33;99405.16;;;7.57;68.19
16821;BME280;8527;49.740;6.604;2023-03-16T20:05:32;99402.66;;;7.56;68.37
16821;BME280;8527;49.740;6.604;2023-03-16T20:10:32;99400.81;;;7.48;68.79
16821;BME280;8527;49.740;6.604;2023-03-16T20:15:35;99402.38;;;7.32;69.35
16821;BME280;8527;49.740;6.604;2023-03-16T20:20:38;99406.59;;;7.17;69.54
16821;BME280;8527;49.740;6.604;2023-03-16T20:25:37;99397.91;;;7.25;69.56
16821;BME280;8527;49.740;6.604;2023-03-16T20:30:38;99391.50;;;6.83;71.49
16821;BME280;8527;49.740;6.604;2023-03-16T20:35:39;99391.56;;;6.91;71.30
16821;BME280;8527;49.740;6.604;2023-03-16T20:40:38;99381.81;;;6.83;72.65
16821;BME280;8527;49.740;6.604;2023-03-16T20:45:39;99382.50;;;6.67;73.44
16821;BME280;8527;49.740;6.604;2023-03-16T20:50:38;99380.81;;;6.84;72.16
16821;BME280;8527;49.740;6.604;2023-03-16T20:55:36;99376.25;;;6.68;73.16
16821;BME280;8527;49.740;6.604;2023-03-16T21:00:39;99362.88;;;6.70;73.12
16821;BME280;8527;49.740;6.604;2023-03-16T21:05:38;99353.81;;;6.64;74.14
16821;BME280;8527;49.740;6.604;2023-03-16T21:10:37;99347.13;;;6.52;73.55
16821;BME280;8527;49.740;6.604;2023-03-16T21:15:46;99360.97;;;6.36;74.72
16821;BME280;8527;49.740;6.604;2023-03-16T21:20:48;99339.44;;;6.40;74.57
16821;BME280;8527;49.740;6.604;2023-03-16T21:25:48;99340.88;;;6.35;75.42
16821;BME280;8527;49.740;6.604;2023-03-16T21:30:51;99337.19;;;6.27;75.08
16821;BME280;8527;49.740;6.604;2023-03-16T21:35:50;99323.56;;;6.14;75.57
16821;BME280;8527;49.740;6.604;2023-03-16T21:40:49;99330.19;;;6.18;74.54
16821;BME280;8527;49.740;6.604;2023-03-16T21:45:50;99321.81;;;6.23;75.96
16821;BME280;8527;49.740;6.604;2023-03-16T21:50:50;99325.00;;;6.08;75.94
16821;BME280;8527;49.740;6.604;2023-03-16T21:55:50;99315.88;;;6.02;76.21
16821;BME280;8527;49.740;6.604;2023-03-16T22:00:52;99312.75;;;5.89;76.60
16821;BME280;8527;49.740;6.604;2023-03-16T22:05:55;99306.59;;;5.98;76.93
16821;BME280;8527;49.740;6.604;2023-03-16T22:10:55;99301.34;;;5.98;76.99
16821;BME280;8527;49.740;6.604;2023-03-16T22:15:57;99282.38;;;5.95;76.83
16821;BME280;8527;49.740;6.604;2023-03-16T22:20:57;99283.81;;;5.89;78.19
16821;BME280;8527;49.740;6.604;2023-03-16T22:25:56;99293.66;;;5.87;78.58
16821;BME280;8527;49.740;6.604;2023-03-16T22:30:58;99279.88;;;5.75;80.53
16821;BME280;8527;49.740;6.604;2023-03-16T22:36:05;99289.06;;;5.71;79.86
16821;BME280;8527;49.740;6.604;2023-03-16T22:41:06;99279.13;;;5.65;79.54
16821;BME280;8527;49.740;6.604;2023-03-16T22:46:16;99279.63;;;5.68;79.71
16821;BME280;8527;49.740;6.604;2023-03-16T22:51:20;99283.41;;;5.66;80.17
16821;BME280;8527;49.740;6.604;2023-03-16T22:56:23;99278.06;;;5.57;80.35
16821;BME280;8527;49.740;6.604;2023-03-16T23:01:29;99266.63;;;5.48;81.21
16821;BME280;8527;49.740;6.604;2023-03-16T23:06:34;99261.78;;;5.44;79.40
16821;BME280;8527;49.740;6.604;2023-03-16T23:11:34;99264.72;;;5.41;80.00
16821;BME280;8527;49.740;6.604;2023-03-16T23:16:47;99257.47;;;5.25;83.99
16821;BME280;8527;49.740;6.604;2023-03-16T23:21:46;99247.31;;;5.30;82.65
16821;BME280;8527;49.740;6.604;2023-03-16T23:26:44;99238.53;;;5.21;82.43
16821;BME280;8527;49.740;6.604;2023-03-16T23:31:47;99242.06;;;5.30;81.50
16821;BME280;8527;49.740;6.604;2023-03-16T23:36:48;99245.97;;;5.26;81.84
16821;BME280;8527;49.740;6.604;2023-03-16T23:41:50;99243.78;;;5.21;82.31
16821;BME280;8527;49.740;6.604;2023-03-16T23:46:55;99249.28;;;5.00;83.60
16821;BME280;8527;49.740;6.604;2023-03-16T23:51:55;99245.09;;;5.07;84.97
16821;BME280;8527;49.740;6.604;2023-03-16T23:56:55;99249.16;;;5.01;84.20
